createdAt,value
2022-07-25T00:00:14.862Z,1.57
2022-07-25T00:02:44.733Z,1.70
2022-07-25T00:05:13.368Z,1.90
2022-07-25T00:07:41.603Z,1.83
2022-07-25T00:10:11.374Z,1.80
2022-07-25T00:12:39.654Z,1.60
2022-07-25T00:15:10.990Z,2.03
2022-07-25T00:17:39.540Z,1.80
2022-07-25T00:20:09.833Z,1.70
2022-07-25T00:22:37.999Z,2.10
2022-07-25T00:25:07.230Z,2.23
2022-07-25T00:27:35.613Z,1.80
2022-07-25T00:30:04.477Z,1.67
2022-07-25T00:32:33.991Z,2.10
2022-07-25T00:35:02.284Z,1.60
2022-07-25T00:37:30.617Z,1.70
2022-07-25T00:39:58.846Z,1.70
2022-07-25T00:42:27.074Z,1.60
2022-07-25T00:44:55.312Z,1.80
2022-07-25T00:47:23.450Z,1.90
2022-07-25T00:49:53.302Z,1.80
2022-07-25T00:52:21.625Z,1.67
2022-07-25T00:54:49.927Z,1.60
2022-07-25T00:57:18.192Z,1.80
2022-07-25T00:59:46.741Z,2.00
2022-07-25T01:02:15.121Z,2.10
2022-07-25T01:04:43.378Z,1.60
2022-07-25T01:07:13.100Z,2.10
2022-07-25T01:09:41.379Z,1.70
2022-07-25T01:12:10.029Z,1.70
2022-07-25T01:14:38.509Z,2.07
2022-07-25T01:17:06.814Z,1.60
2022-07-25T01:19:35.071Z,1.63
2022-07-25T01:22:04.855Z,2.10
2022-07-25T01:24:35.773Z,2.10
2022-07-25T01:27:04.139Z,2.17
2022-07-25T01:29:32.544Z,1.80
2022-07-25T01:32:00.985Z,1.67
2022-07-25T01:34:29.119Z,1.93
2022-07-25T01:36:57.267Z,1.93
2022-07-25T01:39:26.827Z,2.07
2022-07-25T01:41:55.071Z,1.90
2022-07-25T01:44:23.169Z,1.70
2022-07-25T01:46:52.520Z,1.87
2022-07-25T01:49:20.692Z,1.77
2022-07-25T01:51:48.829Z,1.70
2022-07-25T01:54:17.025Z,1.90
2022-07-25T01:56:47.039Z,2.13
2022-07-25T01:59:16.833Z,1.93
2022-07-25T02:01:45.123Z,2.00
2022-07-25T02:04:13.386Z,2.07
2022-07-25T02:06:41.792Z,2.00
2022-07-25T02:09:10.616Z,1.90
2022-07-25T02:11:39.034Z,1.97
2022-07-25T02:14:09.289Z,2.20
2022-07-25T02:16:37.816Z,2.03
2022-07-25T02:19:06.471Z,1.90
2022-07-25T02:21:35.028Z,1.57
2022-07-25T02:24:03.834Z,1.90
2022-07-25T02:26:32.342Z,2.03
2022-07-25T02:29:00.615Z,1.77
2022-07-25T02:31:30.208Z,2.03
2022-07-25T02:33:58.494Z,2.03
2022-07-25T02:36:26.721Z,1.77
2022-07-25T02:38:54.869Z,1.67
2022-07-25T02:41:23.033Z,2.13
2022-07-25T02:43:51.226Z,2.10
2022-07-25T02:46:19.352Z,2.20
2022-07-25T02:48:49.011Z,1.90
2022-07-25T02:51:18.588Z,2.10
2022-07-25T02:53:57.237Z,2.17
2022-07-25T02:56:29.597Z,2.00
2022-07-25T02:58:58.909Z,2.37
2022-07-25T03:01:27.110Z,2.10
2022-07-25T03:03:57.089Z,1.80
2022-07-25T03:06:25.388Z,2.00
2022-07-25T03:08:53.625Z,2.30
2022-07-25T03:11:22.461Z,1.60
2022-07-25T03:13:50.671Z,1.80
2022-07-25T03:16:19.060Z,1.70
2022-07-25T03:18:47.265Z,2.10
2022-07-25T03:21:16.797Z,1.77
2022-07-25T03:23:49.058Z,1.77
2022-07-25T03:26:20.314Z,2.20
2022-07-25T03:28:48.530Z,2.03
2022-07-25T03:31:16.726Z,2.33
2022-07-25T03:33:44.955Z,2.10
2022-07-25T03:36:13.238Z,1.93
2022-07-25T03:38:42.744Z,1.97
2022-07-25T03:41:10.931Z,2.10
2022-07-25T03:43:39.287Z,2.00
2022-07-25T03:46:07.494Z,1.93
2022-07-25T03:48:35.720Z,1.93
2022-07-25T03:51:07.048Z,1.90
2022-07-25T03:53:56.460Z,1.83
2022-07-25T03:56:26.030Z,2.03
2022-07-25T03:58:54.268Z,1.80
2022-07-25T04:01:22.708Z,2.10
2022-07-25T04:03:51.010Z,1.67
2022-07-25T04:06:19.671Z,2.20
2022-07-25T04:08:48.748Z,2.00
2022-07-25T04:11:17.435Z,1.87
2022-07-25T04:13:47.268Z,2.17
2022-07-25T04:16:22.046Z,2.40
2022-07-25T04:18:51.835Z,2.30
2022-07-25T04:21:20.583Z,2.10
2022-07-25T04:23:48.890Z,1.73
2022-07-25T04:26:17.656Z,2.00
2022-07-25T04:28:47.784Z,1.80
2022-07-25T04:31:16.236Z,2.00
2022-07-25T04:33:44.873Z,2.30
2022-07-25T04:36:13.535Z,1.90
2022-07-25T04:38:41.860Z,2.17
2022-07-25T04:41:10.156Z,2.10
2022-07-25T04:43:38.294Z,1.90
2022-07-25T04:46:08.284Z,2.10
2022-07-25T04:48:36.742Z,2.80
2022-07-25T04:51:05.122Z,2.00
2022-07-25T04:53:34.201Z,2.17
2022-07-25T04:56:02.471Z,1.77
2022-07-25T04:58:32.390Z,2.00
2022-07-25T05:01:00.812Z,1.80
2022-07-25T05:03:30.667Z,2.27
2022-07-25T05:05:59.202Z,2.20
2022-07-25T05:08:27.432Z,2.17
2022-07-25T05:10:55.677Z,2.07
2022-07-25T05:13:23.834Z,2.23
2022-07-25T05:15:51.992Z,1.90
2022-07-25T05:18:20.646Z,2.17
2022-07-25T05:20:50.343Z,2.20
2022-07-25T05:23:18.622Z,1.80
2022-07-25T05:25:46.932Z,1.70
2022-07-25T05:28:15.884Z,2.30
2022-07-25T05:30:44.159Z,2.10
2022-07-25T05:33:12.405Z,2.30
2022-07-25T05:35:40.821Z,2.13
2022-07-25T05:38:10.373Z,2.00
2022-07-25T05:40:38.670Z,2.03
2022-07-25T05:43:06.862Z,2.20
2022-07-25T05:45:35.223Z,2.20
2022-07-25T05:48:03.533Z,2.40
2022-07-25T05:50:31.740Z,2.47
2022-07-25T05:52:59.828Z,2.00
2022-07-25T05:55:29.528Z,2.37
2022-07-25T05:57:57.867Z,1.93
2022-07-25T06:00:26.673Z,2.40
2022-07-25T06:02:55.011Z,2.13
2022-07-25T06:05:23.525Z,1.97
2022-07-25T06:07:51.710Z,2.50
2022-07-25T06:10:19.773Z,2.50
2022-07-25T06:12:49.695Z,2.50
2022-07-25T06:15:22.514Z,2.20
2022-07-25T06:17:55.408Z,2.23
2022-07-25T06:20:24.201Z,2.43
2022-07-25T06:22:52.831Z,3.33
2022-07-25T06:25:21.901Z,3.00
2022-07-25T06:27:51.549Z,2.77
2022-07-25T06:30:20.711Z,2.87
2022-07-25T06:32:49.329Z,2.00
2022-07-25T06:35:18.764Z,2.17
2022-07-25T06:37:47.813Z,2.17
2022-07-25T06:40:16.382Z,2.50
2022-07-25T06:42:46.903Z,2.33
2022-07-25T06:45:16.907Z,1.93
2022-07-25T06:47:46.596Z,2.37
2022-07-25T06:50:18.685Z,2.57
2022-07-25T06:52:50.157Z,2.30
2022-07-25T06:55:19.014Z,2.40
2022-07-25T06:57:47.377Z,2.37
2022-07-25T07:00:17.832Z,2.27
2022-07-25T07:02:53.490Z,2.70
2022-07-25T07:05:22.749Z,2.40
2022-07-25T07:07:52.193Z,1.80
2022-07-25T07:10:22.258Z,2.20
2022-07-25T07:12:51.278Z,2.20
2022-07-25T07:15:21.219Z,2.40
2022-07-25T07:17:50.552Z,2.43
2022-07-25T07:20:18.777Z,2.17
2022-07-25T07:22:48.762Z,1.98
2022-07-25T07:25:21.035Z,2.40
2022-07-25T07:27:50.235Z,2.87
2022-07-25T07:30:24.776Z,2.20
2022-07-25T07:32:58.936Z,2.57
2022-07-25T07:35:27.335Z,2.00
2022-07-25T07:37:56.610Z,2.45
2022-07-25T07:40:26.814Z,2.05
2022-07-25T07:42:56.910Z,2.10
2022-07-25T07:45:28.016Z,2.22
2022-07-25T07:47:57.252Z,2.13
2022-07-25T07:50:28.135Z,2.80
2022-07-25T07:52:58.226Z,2.05
2022-07-25T07:55:44.317Z,2.10
2022-07-25T07:58:15.598Z,2.33
2022-07-25T08:00:47.715Z,2.60
2022-07-25T08:03:20.526Z,2.35
2022-07-25T08:05:51.748Z,2.55
2022-07-25T08:08:20.790Z,2.33
2022-07-25T08:10:52.704Z,2.60
2022-07-25T08:13:26.593Z,2.72
2022-07-25T08:16:00.902Z,2.53
2022-07-25T08:18:32.789Z,2.55
2022-07-25T08:21:03.348Z,2.50
2022-07-25T08:23:33.656Z,2.10
2022-07-25T08:26:03.930Z,2.15
2022-07-25T08:28:32.253Z,2.30
2022-07-25T08:31:02.194Z,2.47
2022-07-25T08:33:31.420Z,2.97
2022-07-25T08:35:59.880Z,2.22
2022-07-25T08:38:30.047Z,2.20
2022-07-25T08:40:59.778Z,2.30
2022-07-25T08:43:32.877Z,2.60
2022-07-25T08:46:06.069Z,2.40
2022-07-25T08:48:34.564Z,2.83
2022-07-25T08:51:04.137Z,2.20
2022-07-25T08:53:34.399Z,2.30
2022-07-25T08:56:09.766Z,2.28
2022-07-25T08:58:41.443Z,2.17
2022-07-25T09:01:11.301Z,2.75
2022-07-25T09:03:40.301Z,2.85
2022-07-25T09:06:21.177Z,2.53
2022-07-25T09:08:57.999Z,2.92
2022-07-25T09:11:32.327Z,3.22
2022-07-25T09:14:04.899Z,2.70
2022-07-25T09:16:40.223Z,2.70
2022-07-25T09:19:16.050Z,2.67
2022-07-25T09:21:46.273Z,2.70
2022-07-25T09:24:18.123Z,2.40
2022-07-25T09:26:53.405Z,2.55
2022-07-25T09:29:25.023Z,2.70
2022-07-25T09:31:57.036Z,2.65
2022-07-25T09:34:44.584Z,2.60
2022-07-25T09:37:15.370Z,3.03
2022-07-25T09:39:47.318Z,3.17
2022-07-25T09:42:25.744Z,3.25
2022-07-25T09:45:04.277Z,2.80
2022-07-25T09:47:36.407Z,3.28
2022-07-25T09:50:06.814Z,2.83
2022-07-25T09:52:35.722Z,3.42
2022-07-25T09:55:06.371Z,3.40
2022-07-25T09:57:34.728Z,2.80
2022-07-25T10:00:03.731Z,2.80
2022-07-25T10:02:50.529Z,2.90
2022-07-25T10:05:36.161Z,2.55
2022-07-25T10:08:09.273Z,2.70
2022-07-25T10:10:41.292Z,3.13
2022-07-25T10:13:14.091Z,3.28
2022-07-25T10:15:52.077Z,3.00
2022-07-25T10:18:25.696Z,3.35
2022-07-25T10:20:56.872Z,3.70
2022-07-25T10:23:28.121Z,3.42
2022-07-25T10:26:08.420Z,3.53
2022-07-25T10:28:44.633Z,3.40
2022-07-25T10:31:23.745Z,3.35
2022-07-25T10:33:59.246Z,3.47
2022-07-25T10:36:33.558Z,3.78
2022-07-25T10:39:02.879Z,3.33
2022-07-25T10:41:31.575Z,3.47
2022-07-25T10:44:03.758Z,3.80
2022-07-25T10:46:36.308Z,3.72
2022-07-25T10:49:08.881Z,3.50
2022-07-25T10:51:41.770Z,3.60
2022-07-25T10:54:15.688Z,3.25
2022-07-25T10:56:54.881Z,3.45
2022-07-25T10:59:35.283Z,3.65
2022-07-25T11:02:05.370Z,3.80
2022-07-25T11:04:36.424Z,3.60
2022-07-25T11:07:13.222Z,3.50
2022-07-25T11:09:43.466Z,3.58
2022-07-25T11:12:16.936Z,4.00
2022-07-25T11:14:45.277Z,3.50
2022-07-25T11:17:20.160Z,3.65
2022-07-25T11:19:59.183Z,3.50
2022-07-25T11:22:30.005Z,3.95
2022-07-25T11:24:58.772Z,3.63
2022-07-25T11:27:30.834Z,3.50
2022-07-25T11:30:08.851Z,3.75
2022-07-25T11:32:42.061Z,4.35
2022-07-25T11:35:14.687Z,3.75
2022-07-25T11:37:51.744Z,3.75
2022-07-25T11:40:21.481Z,3.80
2022-07-25T11:42:53.228Z,3.42
2022-07-25T11:45:23.845Z,3.78
2022-07-25T11:48:07.327Z,3.40
2022-07-25T11:50:40.366Z,3.75
2022-07-25T11:53:14.548Z,3.58
2022-07-25T11:55:47.319Z,3.65
2022-07-25T11:58:18.747Z,3.75
2022-07-25T12:00:50.735Z,3.63
2022-07-25T12:03:22.392Z,3.63
2022-07-25T12:05:52.201Z,3.60
2022-07-25T12:08:23.923Z,3.85
2022-07-25T12:10:52.235Z,4.00
2022-07-25T12:13:25.642Z,3.83
2022-07-25T12:15:54.243Z,3.85
2022-07-25T12:18:22.560Z,3.85
2022-07-25T12:20:53.056Z,3.60
2022-07-25T12:23:22.415Z,3.97
2022-07-25T12:25:51.842Z,3.65
2022-07-25T12:28:20.324Z,3.42
2022-07-25T12:30:56.057Z,4.03
2022-07-25T12:33:25.438Z,3.67
2022-07-25T12:35:55.221Z,4.10
2022-07-25T12:38:23.467Z,3.97
2022-07-25T12:40:52.161Z,3.78
2022-07-25T12:43:20.412Z,3.92
2022-07-25T12:45:48.614Z,4.07
2022-07-25T12:48:17.125Z,3.92
2022-07-25T12:50:46.254Z,4.35
2022-07-25T12:53:16.188Z,4.22
2022-07-25T12:55:44.527Z,4.22
2022-07-25T12:58:15.089Z,4.43
2022-07-25T13:00:43.314Z,4.05
2022-07-25T13:03:11.503Z,3.95
2022-07-25T13:05:41.815Z,4.18
2022-07-25T13:08:10.142Z,4.55
2022-07-25T13:10:39.624Z,4.55
2022-07-25T13:13:07.894Z,4.07
2022-07-25T13:15:36.960Z,4.25
2022-07-25T13:18:05.608Z,4.18
2022-07-25T13:20:36.065Z,4.70
2022-07-25T13:23:05.009Z,4.43
2022-07-25T13:25:34.862Z,4.40
2022-07-25T13:28:10.735Z,4.30
2022-07-25T13:30:39.461Z,4.60
2022-07-25T13:33:10.014Z,4.97
2022-07-25T13:35:39.488Z,4.82
2022-07-25T13:38:11.161Z,4.40
2022-07-25T13:40:41.980Z,5.20
2022-07-25T13:43:13.410Z,5.13
2022-07-25T13:45:43.181Z,5.28
2022-07-25T13:48:28.991Z,5.05
2022-07-25T13:50:58.865Z,4.78
2022-07-25T13:53:30.265Z,4.53
2022-07-25T13:55:59.944Z,4.57
2022-07-25T13:58:30.209Z,4.60
2022-07-25T14:00:59.030Z,4.75
2022-07-25T14:03:28.605Z,4.80
2022-07-25T14:05:57.047Z,4.65
2022-07-25T14:08:26.341Z,5.32
2022-07-25T14:10:54.946Z,4.93
2022-07-25T14:13:23.365Z,5.22
2022-07-25T14:15:53.416Z,4.93
2022-07-25T14:18:21.772Z,4.50
2022-07-25T14:20:50.118Z,4.70
2022-07-25T14:23:18.443Z,4.43
2022-07-25T14:25:46.705Z,4.40
2022-07-25T14:28:14.900Z,4.38
2022-07-25T14:30:45.366Z,4.47
2022-07-25T14:33:15.247Z,4.20
2022-07-25T14:35:43.490Z,4.45
2022-07-25T14:38:11.822Z,4.75
2022-07-25T14:40:40.095Z,4.15
2022-07-25T14:43:08.514Z,4.82
2022-07-25T14:45:37.187Z,4.28
2022-07-25T14:48:07.414Z,3.65
2022-07-25T14:50:37.096Z,4.13
2022-07-25T14:53:05.231Z,4.28
2022-07-25T14:55:33.475Z,4.07
2022-07-25T14:58:03.738Z,4.30
2022-07-25T15:00:33.701Z,3.97
2022-07-25T15:03:01.982Z,3.70
2022-07-25T15:05:30.196Z,4.55
2022-07-25T15:07:59.686Z,3.88
2022-07-25T15:10:27.837Z,4.30
2022-07-25T15:13:13.922Z,3.95
2022-07-25T15:15:45.139Z,3.85
2022-07-25T15:18:14.227Z,4.25
2022-07-25T15:20:42.647Z,4.18
2022-07-25T15:23:12.172Z,4.00
2022-07-25T15:28:28.953Z,4.10
2022-07-25T15:30:57.110Z,4.18
2022-07-25T15:33:25.486Z,4.05
2022-07-25T15:35:54.171Z,4.10
2022-07-25T15:38:24.927Z,4.35
2022-07-25T15:40:53.441Z,4.07
2022-07-25T15:43:22.257Z,3.90
2022-07-25T15:45:51.154Z,4.32
2022-07-25T15:48:20.341Z,3.88
2022-07-25T15:50:51.608Z,4.47
2022-07-25T15:53:20.228Z,4.35
2022-07-25T15:55:49.963Z,4.53
2022-07-25T15:58:18.546Z,4.20
2022-07-25T16:00:46.787Z,4.20
2022-07-25T16:03:14.983Z,4.85
2022-07-25T16:05:45.455Z,4.50
2022-07-25T16:08:13.593Z,3.97
2022-07-25T16:10:41.852Z,4.20
2022-07-25T16:13:11.368Z,4.32
2022-07-25T16:15:40.762Z,4.20
2022-07-25T16:18:10.331Z,3.95
2022-07-25T16:20:38.528Z,4.88
2022-07-25T16:23:06.773Z,4.60
2022-07-25T16:25:35.047Z,4.10
2022-07-25T16:28:03.651Z,4.03
2022-07-25T16:30:33.648Z,4.57
2022-07-25T16:33:01.852Z,3.92
2022-07-25T16:35:32.176Z,4.25
2022-07-25T16:38:01.484Z,4.30
2022-07-25T16:40:31.983Z,4.45
2022-07-25T16:43:01.312Z,4.45
2022-07-25T16:45:30.874Z,4.40
2022-07-25T16:48:01.085Z,4.68
2022-07-25T16:50:29.608Z,4.60
2022-07-25T16:52:58.405Z,5.78
2022-07-25T16:55:27.887Z,4.50
2022-07-25T16:57:56.213Z,4.10
2022-07-25T17:00:24.884Z,3.90
2022-07-25T17:02:53.476Z,4.38
2022-07-25T17:05:23.512Z,4.75
2022-07-25T17:07:58.964Z,4.45
2022-07-25T17:10:28.855Z,4.50
2022-07-25T17:12:57.904Z,4.03
2022-07-25T17:15:26.530Z,4.60
2022-07-25T17:17:54.902Z,4.25
2022-07-25T17:20:27.383Z,4.80
2022-07-25T17:22:55.843Z,3.85
2022-07-25T17:25:24.335Z,4.38
2022-07-25T17:27:52.859Z,4.07
2022-07-25T17:30:21.270Z,4.57
2022-07-25T17:32:52.158Z,4.32
2022-07-25T17:35:21.170Z,4.80
2022-07-25T17:37:50.727Z,5.03
2022-07-25T17:40:19.225Z,4.43
2022-07-25T17:42:48.772Z,4.65
2022-07-25T17:45:17.793Z,5.00
2022-07-25T17:47:46.258Z,4.95
2022-07-25T17:50:17.058Z,5.13
2022-07-25T17:52:45.332Z,5.85
2022-07-25T17:55:15.103Z,6.88
2022-07-25T17:57:43.902Z,6.65
2022-07-25T18:00:14.817Z,7.63
2022-07-25T18:02:43.974Z,8.32
2022-07-25T18:05:12.545Z,10.77
2022-07-25T18:07:45.639Z,12.07
2022-07-25T18:10:16.463Z,13.52
2022-07-25T18:12:45.797Z,13.48
2022-07-25T18:15:15.084Z,15.23
2022-07-25T18:17:43.952Z,15.55
2022-07-25T18:20:15.011Z,16.10
2022-07-25T18:22:43.370Z,16.35
2022-07-25T18:25:15.449Z,16.75
2022-07-25T18:27:46.496Z,16.98
2022-07-25T18:30:16.902Z,17.75
2022-07-25T18:32:45.809Z,17.70
2022-07-25T18:35:15.204Z,16.88
2022-07-25T18:37:44.047Z,6.97
2022-07-25T18:40:15.196Z,4.85
2022-07-25T18:42:43.726Z,4.63
2022-07-25T18:45:12.970Z,5.40
2022-07-25T18:47:41.319Z,5.63
2022-07-25T18:50:11.135Z,5.63
2022-07-25T18:52:39.771Z,5.63
2022-07-25T18:55:10.459Z,6.17
2022-07-25T18:57:40.801Z,6.60
2022-07-25T19:00:11.555Z,7.03
2022-07-25T19:02:39.965Z,6.37
2022-07-25T19:05:11.205Z,7.60
2022-07-25T19:07:41.114Z,6.80
2022-07-25T19:10:10.737Z,7.50
2022-07-25T19:12:40.605Z,7.20
2022-07-25T19:15:09.806Z,7.57
2022-07-25T19:17:38.510Z,7.40
2022-07-25T19:20:08.720Z,7.00
2022-07-25T19:22:38.358Z,7.23
2022-07-25T19:25:10.891Z,7.90
2022-07-25T19:27:41.162Z,7.70
2022-07-25T19:30:15.307Z,7.87
2022-07-25T19:32:46.201Z,7.73
2022-07-25T19:35:14.894Z,7.70
2022-07-25T19:37:43.312Z,7.33
2022-07-25T19:40:12.658Z,7.70
2022-07-25T19:42:42.834Z,7.37
2022-07-25T19:45:12.625Z,7.00
2022-07-25T19:47:41.055Z,7.63
2022-07-25T19:50:10.178Z,6.93
2022-07-25T19:52:38.534Z,7.60
2022-07-25T19:55:08.303Z,7.27
2022-07-25T19:57:36.696Z,7.37
2022-07-25T20:00:08.319Z,6.80
2022-07-25T20:02:36.824Z,6.80
2022-07-25T20:05:05.777Z,6.83
2022-07-25T20:07:34.073Z,7.43
2022-07-25T20:10:02.372Z,7.10
2022-07-25T20:12:31.243Z,7.90
2022-07-25T20:14:59.399Z,7.90
2022-07-25T20:17:29.209Z,9.03
2022-07-25T20:19:57.356Z,8.63
2022-07-25T20:22:25.576Z,8.40
2022-07-25T20:24:53.847Z,8.03
2022-07-25T20:27:22.520Z,9.53
2022-07-25T20:29:51.213Z,8.90
2022-07-25T20:32:19.486Z,7.97
2022-07-25T20:34:49.220Z,8.00
2022-07-25T20:37:17.411Z,7.93
2022-07-25T20:39:45.810Z,7.93
2022-07-25T20:42:16.868Z,8.17
2022-07-25T20:44:45.213Z,7.47
2022-07-25T20:47:16.126Z,8.20
2022-07-25T20:49:44.557Z,8.00
2022-07-25T20:52:14.097Z,8.13
2022-07-25T20:54:43.051Z,8.00
2022-07-25T20:57:12.915Z,8.83
2022-07-25T20:59:41.426Z,7.97
2022-07-25T21:02:10.712Z,8.03
2022-07-25T21:04:39.052Z,8.90
2022-07-25T21:07:07.500Z,7.77
2022-07-25T21:09:37.618Z,8.53
2022-07-25T21:12:06.418Z,8.00
2022-07-25T21:14:35.215Z,8.10
2022-07-25T21:17:03.562Z,7.97
2022-07-25T21:19:32.012Z,8.00
2022-07-25T21:22:00.347Z,8.20
2022-07-25T21:24:28.578Z,8.97
2022-07-25T21:26:58.411Z,9.13
2022-07-25T21:29:26.725Z,8.93
2022-07-25T21:31:55.018Z,9.30
2022-07-25T21:34:23.331Z,9.40
2022-07-25T21:36:51.578Z,9.67
2022-07-25T21:39:19.747Z,9.00
2022-07-25T21:41:48.027Z,9.63
2022-07-25T21:44:24.648Z,9.73
2022-07-25T21:46:52.979Z,9.57
2022-07-25T21:49:41.468Z,9.83
2022-07-25T21:52:14.011Z,10.07
2022-07-25T21:54:42.690Z,7.93
2022-07-25T21:57:13.388Z,8.33
2022-07-25T21:59:44.597Z,7.57
2022-07-25T22:02:13.638Z,7.93
2022-07-25T22:04:42.094Z,7.87
2022-07-25T22:07:10.288Z,8.03
2022-07-25T22:09:38.606Z,9.00
2022-07-25T22:12:07.825Z,8.50
2022-07-25T22:14:36.877Z,8.87
2022-07-25T22:17:06.758Z,10.37
2022-07-25T22:19:34.987Z,11.63
2022-07-25T22:22:03.821Z,9.77
2022-07-25T22:24:32.249Z,9.10
2022-07-25T22:27:00.449Z,7.63
2022-07-25T22:29:28.646Z,7.57
2022-07-25T22:31:56.949Z,7.00
2022-07-25T22:34:27.014Z,7.50
2022-07-25T22:36:55.179Z,7.50
2022-07-25T22:39:23.391Z,7.80
2022-07-25T22:41:51.569Z,8.37
2022-07-25T22:44:19.910Z,7.47
2022-07-25T22:46:48.063Z,7.93
2022-07-25T22:49:16.218Z,8.63
2022-07-25T22:51:45.706Z,8.47
2022-07-25T22:54:13.818Z,9.17
2022-07-25T22:56:41.917Z,8.10
2022-07-25T22:59:10.997Z,9.37
2022-07-25T23:01:39.968Z,9.10
2022-07-25T23:04:08.551Z,8.50
2022-07-25T23:06:36.763Z,9.77
2022-07-25T23:09:06.497Z,9.10
2022-07-25T23:11:34.877Z,9.20
2022-07-25T23:14:03.334Z,9.70
2022-07-25T23:16:31.495Z,10.20
2022-07-25T23:18:59.673Z,9.23
2022-07-25T23:21:27.909Z,9.53
2022-07-25T23:23:57.700Z,8.63
2022-07-25T23:26:27.815Z,8.93
2022-07-25T23:28:56.396Z,8.83
2022-07-25T23:31:24.543Z,9.47
2022-07-25T23:33:52.644Z,8.63
2022-07-25T23:36:20.707Z,8.83
2022-07-25T23:38:48.829Z,8.57
2022-07-25T23:41:16.893Z,9.17
2022-07-25T23:43:57.673Z,7.77
2022-07-25T23:46:30.921Z,7.60
2022-07-25T23:49:00.559Z,7.20
2022-07-25T23:51:28.701Z,6.90
2022-07-25T23:53:56.957Z,7.37
2022-07-25T23:56:25.638Z,7.43
2022-07-25T23:58:55.163Z,6.27
